createdAt,value
2022-11-14T00:02:05.521Z,90.63
2022-11-14T00:04:51.234Z,90.49
2022-11-14T00:07:36.951Z,90.34
2022-11-14T00:10:22.865Z,90.10
2022-11-14T00:13:08.703Z,90.09
2022-11-14T00:15:54.626Z,89.49
2022-11-14T00:18:40.397Z,88.95
2022-11-14T00:21:26.155Z,88.55
2022-11-14T00:24:12.336Z,88.43
2022-11-14T00:26:57.836Z,88.57
2022-11-14T00:29:43.525Z,88.56
2022-11-14T00:32:29.673Z,88.62
2022-11-14T00:35:15.225Z,88.64
2022-11-14T00:38:00.943Z,88.69
2022-11-14T00:40:46.660Z,89.00
2022-11-14T00:43:32.612Z,89.15
2022-11-14T00:46:18.390Z,89.30
2022-11-14T00:49:04.024Z,89.54
2022-11-14T00:51:49.900Z,89.74
2022-11-14T00:54:35.521Z,90.10
2022-11-14T00:57:21.534Z,90.16
2022-11-14T01:00:07.856Z,90.74
2022-11-14T01:02:57.018Z,90.89
2022-11-14T01:05:47.705Z,91.13
2022-11-14T01:08:33.891Z,91.39
2022-11-14T01:11:22.599Z,91.53
2022-11-14T01:14:09.323Z,91.80
2022-11-14T01:16:54.759Z,91.75
2022-11-14T01:19:41.215Z,91.79
2022-11-14T01:22:26.872Z,91.72
2022-11-14T01:25:12.544Z,91.91
2022-11-14T01:27:58.476Z,91.64
2022-11-14T01:30:44.224Z,91.49
2022-11-14T01:33:30.056Z,91.12
2022-11-14T01:36:15.759Z,90.70
2022-11-14T01:39:01.456Z,90.60
2022-11-14T01:41:47.627Z,90.34
2022-11-14T01:44:48.075Z,90.65
2022-11-14T01:47:34.103Z,90.95
2022-11-14T01:50:20.003Z,91.02
2022-11-14T01:53:05.774Z,91.39
2022-11-14T01:55:52.791Z,91.41
2022-11-14T01:58:42.063Z,91.28
2022-11-14T02:01:31.336Z,91.43
2022-11-14T02:04:34.406Z,91.64
2022-11-14T02:07:20.378Z,91.64
2022-11-14T02:10:17.781Z,91.63
2022-11-14T02:13:03.339Z,91.61
2022-11-14T02:15:49.041Z,91.91
2022-11-14T02:18:34.971Z,92.14
2022-11-14T02:21:20.710Z,92.08
2022-11-14T02:24:11.258Z,92.04
2022-11-14T02:26:56.566Z,92.07
2022-11-14T02:29:42.669Z,92.15
2022-11-14T02:32:28.468Z,92.23
2022-11-14T02:35:18.325Z,92.16
2022-11-14T02:38:04.095Z,92.25
2022-11-14T02:40:49.845Z,92.47
2022-11-14T02:43:35.595Z,92.37
2022-11-14T02:46:21.328Z,92.44
2022-11-14T02:49:07.060Z,92.33
2022-11-14T02:51:53.121Z,92.28
2022-11-14T02:54:38.492Z,92.06
2022-11-14T02:57:24.279Z,91.65
2022-11-14T03:00:14.795Z,91.67
2022-11-14T03:03:00.956Z,91.89
2022-11-14T03:05:46.846Z,91.72
2022-11-14T03:08:32.945Z,91.79
2022-11-14T03:11:18.431Z,91.65
2022-11-14T03:14:05.396Z,91.39
2022-11-14T03:16:51.129Z,91.56
2022-11-14T03:19:36.816Z,91.61
2022-11-14T03:22:22.590Z,91.63
2022-11-14T03:25:08.889Z,91.57
2022-11-14T03:27:54.233Z,91.84
2022-11-14T03:30:40.013Z,92.20
2022-11-14T03:33:25.821Z,92.33
2022-11-14T03:36:11.618Z,92.63
2022-11-14T03:38:57.479Z,92.91
2022-11-14T03:41:43.058Z,93.20
2022-11-14T03:44:28.766Z,93.27
2022-11-14T03:47:14.518Z,93.47
2022-11-14T03:50:00.254Z,93.65
2022-11-14T03:52:49.612Z,93.80
2022-11-14T03:55:35.331Z,93.89
2022-11-14T03:58:21.112Z,94.26
2022-11-14T04:01:07.135Z,94.43
2022-11-14T04:03:52.911Z,94.65
2022-11-14T04:06:39.098Z,95.02
2022-11-14T04:09:24.576Z,95.05
2022-11-14T04:12:15.527Z,95.32
2022-11-14T04:15:01.535Z,95.48
2022-11-14T04:17:47.748Z,95.83
2022-11-14T04:20:33.469Z,96.06
2022-11-14T04:23:19.809Z,96.15
2022-11-14T04:26:06.972Z,96.91
2022-11-14T04:28:52.465Z,97.10
2022-11-14T04:31:38.320Z,97.85
2022-11-14T04:34:24.058Z,98.01
2022-11-14T04:37:10.110Z,98.06
2022-11-14T04:39:58.922Z,98.57
2022-11-14T04:42:44.760Z,99.37
2022-11-14T04:45:30.474Z,100.00
2022-11-14T04:48:16.350Z,100.00
2022-11-14T04:51:01.992Z,99.88
2022-11-14T04:53:47.814Z,99.23
2022-11-14T04:56:33.756Z,98.51
2022-11-14T04:59:21.100Z,98.53
2022-11-14T05:02:07.030Z,98.65
2022-11-14T05:04:52.874Z,98.43
2022-11-14T05:07:38.537Z,98.75
2022-11-14T05:10:24.299Z,98.64
2022-11-14T05:13:10.495Z,98.29
2022-11-14T05:15:59.989Z,98.23
2022-11-14T05:18:47.188Z,98.72
2022-11-14T05:21:33.127Z,99.34
2022-11-14T05:24:20.064Z,100.00
2022-11-14T05:27:05.788Z,100.00
2022-11-14T05:29:51.497Z,100.00
2022-11-14T05:32:37.216Z,100.00
2022-11-14T05:35:23.013Z,100.00
2022-11-14T05:38:08.742Z,100.00
2022-11-14T05:40:54.558Z,100.00
2022-11-14T05:43:41.000Z,100.00
2022-11-14T05:46:26.643Z,100.00
2022-11-14T05:49:19.177Z,100.00
2022-11-14T05:52:07.022Z,100.00
2022-11-14T05:54:53.058Z,100.00
2022-11-14T05:57:38.758Z,100.00
2022-11-14T06:00:24.842Z,100.00
2022-11-14T06:03:15.105Z,100.00
2022-11-14T06:06:02.650Z,100.00
2022-11-14T06:08:48.592Z,100.00
2022-11-14T06:11:34.622Z,100.00
2022-11-14T06:14:20.033Z,100.00
2022-11-14T06:17:05.776Z,100.00
2022-11-14T06:19:51.520Z,100.00
2022-11-14T06:22:37.365Z,100.00
2022-11-14T06:25:23.263Z,100.00
2022-11-14T06:28:08.882Z,100.00
2022-11-14T06:31:00.025Z,100.00
2022-11-14T06:33:46.209Z,100.00
2022-11-14T06:36:31.981Z,100.00
2022-11-14T06:39:17.711Z,100.00
2022-11-14T06:42:03.588Z,100.00
2022-11-14T06:44:49.256Z,100.00
2022-11-14T06:47:35.049Z,100.00
2022-11-14T06:50:20.878Z,100.00
2022-11-14T06:53:06.478Z,100.00
2022-11-14T06:56:05.736Z,100.00
2022-11-14T06:58:51.392Z,100.00
2022-11-14T07:01:37.270Z,100.00
2022-11-14T07:04:23.202Z,100.00
2022-11-14T07:07:08.978Z,100.00
2022-11-14T07:09:56.733Z,100.00
2022-11-14T07:12:42.546Z,100.00
2022-11-14T07:15:28.681Z,100.00
2022-11-14T07:18:14.340Z,99.92
2022-11-14T07:21:02.526Z,99.64
2022-11-14T07:23:48.109Z,96.30
2022-11-14T07:26:33.917Z,96.79
2022-11-14T07:29:19.617Z,94.30
2022-11-14T07:32:05.887Z,91.49
2022-11-14T07:34:51.464Z,90.97
2022-11-14T07:37:37.217Z,88.16
2022-11-14T07:40:23.067Z,87.94
2022-11-14T07:43:08.732Z,86.79
2022-11-14T07:45:54.769Z,85.99
2022-11-14T07:48:40.306Z,86.03
2022-11-14T07:51:26.110Z,85.99
2022-11-14T07:54:12.284Z,85.98
2022-11-14T07:56:58.236Z,85.26
2022-11-14T07:59:44.026Z,84.52
2022-11-14T08:02:29.928Z,83.50
2022-11-14T08:05:15.716Z,81.93
2022-11-14T08:08:01.507Z,79.49
2022-11-14T08:10:47.236Z,77.67
2022-11-14T08:13:34.004Z,75.88
2022-11-14T08:16:19.830Z,75.25
2022-11-14T08:19:06.155Z,74.51
2022-11-14T08:21:52.023Z,72.88
2022-11-14T08:24:37.872Z,72.25
2022-11-14T08:27:23.774Z,70.91
2022-11-14T08:30:10.140Z,70.77
2022-11-14T08:32:56.002Z,70.26
2022-11-14T08:35:41.939Z,71.19
2022-11-14T08:38:27.953Z,71.54
2022-11-14T08:41:14.983Z,71.15
2022-11-14T08:44:00.605Z,69.34
2022-11-14T08:46:46.400Z,69.46
2022-11-14T08:49:32.058Z,68.56
2022-11-14T08:52:17.872Z,69.12
2022-11-14T08:55:03.965Z,69.67
2022-11-14T08:57:50.170Z,68.71
2022-11-14T09:00:36.107Z,69.30
2022-11-14T09:03:21.765Z,69.36
2022-11-14T09:06:07.778Z,69.91
2022-11-14T09:08:53.504Z,70.52
2022-11-14T09:11:39.564Z,70.16
2022-11-14T09:14:25.226Z,70.69
2022-11-14T09:17:10.995Z,70.63
2022-11-14T09:19:56.755Z,69.88
2022-11-14T09:22:42.700Z,69.83
2022-11-14T09:25:30.008Z,69.44
2022-11-14T09:28:15.822Z,69.66
2022-11-14T09:31:06.943Z,68.81
2022-11-14T09:33:52.676Z,68.42
2022-11-14T09:36:38.689Z,67.81
2022-11-14T09:39:24.610Z,67.42
2022-11-14T09:42:22.932Z,65.77
2022-11-14T09:45:15.151Z,63.96
2022-11-14T09:48:09.762Z,64.26
2022-11-14T09:51:20.118Z,61.88
2022-11-14T09:54:16.672Z,59.48
2022-11-14T09:57:02.224Z,57.85
2022-11-14T09:59:48.415Z,55.83
2022-11-14T10:02:55.916Z,56.61
2022-11-14T10:06:05.688Z,54.99
2022-11-14T10:09:14.307Z,55.82
2022-11-14T10:12:11.723Z,56.66
2022-11-14T10:15:43.219Z,55.97
2022-11-14T10:18:44.043Z,55.33
2022-11-14T10:21:35.593Z,54.72
2022-11-14T10:24:49.114Z,54.77
2022-11-14T10:27:43.385Z,54.13
2022-11-14T10:30:39.047Z,54.02
2022-11-14T10:33:44.398Z,54.41
2022-11-14T10:36:59.930Z,54.74
2022-11-14T10:39:55.579Z,54.08
2022-11-14T10:42:49.828Z,54.67
2022-11-14T10:45:44.998Z,54.16
2022-11-14T10:48:43.182Z,54.04
2022-11-14T10:51:43.475Z,53.61
2022-11-14T10:55:06.787Z,54.49
2022-11-14T10:57:52.279Z,54.62
2022-11-14T11:00:37.844Z,54.28
2022-11-14T11:03:41.666Z,54.88
2022-11-14T11:06:29.338Z,54.80
2022-11-14T11:09:47.139Z,54.56
2022-11-14T11:13:05.535Z,54.94
2022-11-14T11:15:58.488Z,53.83
2022-11-14T11:18:47.332Z,53.64
2022-11-14T11:21:49.000Z,53.42
2022-11-14T11:24:37.707Z,53.82
2022-11-14T11:27:28.988Z,54.14
2022-11-14T11:30:25.667Z,54.56
2022-11-14T11:33:23.052Z,54.92
2022-11-14T11:36:25.200Z,55.46
2022-11-14T11:39:36.907Z,55.82
2022-11-14T11:43:06.193Z,55.81
2022-11-14T11:45:37.290Z,57.00
2022-11-14T11:48:26.592Z,57.07
2022-11-14T11:51:24.706Z,57.64
2022-11-14T11:54:13.215Z,57.90
2022-11-14T11:57:03.863Z,57.83
2022-11-14T11:59:55.862Z,57.40
2022-11-14T12:02:49.745Z,57.29
2022-11-14T12:05:50.532Z,56.94
2022-11-14T12:08:43.547Z,56.35
2022-11-14T12:11:33.657Z,55.13
2022-11-14T12:14:57.083Z,53.53
2022-11-14T12:17:59.353Z,52.77
2022-11-14T12:21:10.215Z,52.08
2022-11-14T12:24:22.617Z,51.25
2022-11-14T12:27:26.524Z,50.92
2022-11-14T12:30:22.978Z,51.27
2022-11-14T12:33:23.088Z,51.10
2022-11-14T12:36:11.519Z,50.92
2022-11-14T12:38:58.429Z,51.29
2022-11-14T12:41:44.085Z,51.06
2022-11-14T12:44:29.904Z,51.38
2022-11-14T12:47:21.876Z,50.55
2022-11-14T12:50:29.284Z,50.89
2022-11-14T12:53:36.346Z,50.64
2022-11-14T12:56:41.658Z,50.58
2022-11-14T12:59:49.531Z,51.22
2022-11-14T13:02:53.919Z,51.00
2022-11-14T13:06:04.623Z,50.91
2022-11-14T13:08:58.844Z,51.25
2022-11-14T13:12:07.433Z,51.67
2022-11-14T13:15:14.089Z,51.96
2022-11-14T13:18:36.579Z,52.53
2022-11-14T13:21:47.397Z,52.61
2022-11-14T13:24:54.671Z,52.81
2022-11-14T13:28:05.881Z,53.58
2022-11-14T13:31:16.741Z,54.26
2022-11-14T13:34:31.565Z,54.37
2022-11-14T13:37:39.666Z,54.19
2022-11-14T13:40:34.184Z,53.84
2022-11-14T13:43:38.269Z,54.10
2022-11-14T13:46:45.258Z,54.05
2022-11-14T13:50:11.481Z,54.95
2022-11-14T13:52:57.579Z,55.53
2022-11-14T13:56:09.366Z,55.67
2022-11-14T13:59:33.163Z,55.74
2022-11-14T14:02:43.167Z,55.51
2022-11-14T14:05:41.405Z,54.72
2022-11-14T14:08:26.896Z,54.63
2022-11-14T14:11:48.401Z,54.58
2022-11-14T14:15:01.437Z,54.80
2022-11-14T14:18:02.018Z,54.63
2022-11-14T14:20:54.252Z,54.71
2022-11-14T14:23:52.592Z,55.14
2022-11-14T14:27:01.756Z,55.22
2022-11-14T14:30:13.499Z,55.55
2022-11-14T14:33:08.272Z,55.90
2022-11-14T14:35:54.565Z,56.15
2022-11-14T14:38:40.115Z,56.50
2022-11-14T14:41:31.127Z,56.77
2022-11-14T14:44:23.643Z,57.50
2022-11-14T14:47:18.131Z,57.71
2022-11-14T14:50:23.810Z,58.11
2022-11-14T14:53:23.068Z,58.32
2022-11-14T14:56:19.586Z,58.69
2022-11-14T14:59:19.906Z,58.79
2022-11-14T15:02:15.117Z,59.51
2022-11-14T15:05:01.738Z,59.58
2022-11-14T15:07:49.658Z,60.55
2022-11-14T15:10:35.848Z,60.82
2022-11-14T15:13:25.307Z,61.27
2022-11-14T15:16:13.021Z,61.24
2022-11-14T15:19:00.036Z,61.67
2022-11-14T15:21:45.822Z,62.08
2022-11-14T15:24:32.135Z,62.62
2022-11-14T15:27:20.413Z,62.80
2022-11-14T15:30:19.452Z,63.44
2022-11-14T15:33:25.205Z,63.54
2022-11-14T15:36:18.035Z,64.11
2022-11-14T15:39:22.955Z,64.65
2022-11-14T15:42:26.833Z,64.74
2022-11-14T15:45:26.463Z,65.56
2022-11-14T15:48:16.027Z,65.92
2022-11-14T15:51:01.928Z,66.29
2022-11-14T15:53:49.792Z,66.70
2022-11-14T15:56:35.597Z,66.71
2022-11-14T15:59:21.653Z,67.62
2022-11-14T16:02:15.285Z,67.81
2022-11-14T16:05:03.925Z,68.03
2022-11-14T16:07:49.615Z,68.33
2022-11-14T16:10:37.047Z,68.72
2022-11-14T16:13:23.059Z,68.78
2022-11-14T16:16:09.055Z,68.68
2022-11-14T16:18:54.623Z,68.98
2022-11-14T16:21:40.591Z,69.60
2022-11-14T16:24:31.122Z,69.44
2022-11-14T16:27:19.269Z,69.96
2022-11-14T16:30:05.562Z,70.10
2022-11-14T16:32:52.597Z,70.63
2022-11-14T16:35:38.644Z,70.73
2022-11-14T16:38:24.268Z,71.79
2022-11-14T16:41:13.603Z,71.88
2022-11-14T16:43:59.527Z,71.97
2022-11-14T16:46:46.496Z,72.26
2022-11-14T16:49:32.333Z,72.59
2022-11-14T16:52:19.346Z,72.56
2022-11-14T16:55:06.062Z,73.17
2022-11-14T16:57:52.006Z,73.13
2022-11-14T17:00:37.915Z,73.44
2022-11-14T17:03:23.755Z,73.57
2022-11-14T17:06:12.705Z,73.87
2022-11-14T17:09:00.099Z,74.09
2022-11-14T17:11:45.906Z,74.42
2022-11-14T17:14:31.880Z,74.21
2022-11-14T17:17:17.356Z,74.43
2022-11-14T17:20:03.441Z,74.79
2022-11-14T17:22:49.233Z,75.14
2022-11-14T17:25:35.245Z,75.11
2022-11-14T17:28:21.577Z,76.00
2022-11-14T17:31:08.814Z,76.00
2022-11-14T17:33:57.184Z,75.96
2022-11-14T17:36:42.723Z,75.89
2022-11-14T17:39:28.605Z,76.00
2022-11-14T17:42:14.385Z,76.21
2022-11-14T17:45:01.239Z,76.51
2022-11-14T17:47:47.107Z,76.40
2022-11-14T17:50:37.470Z,76.69
2022-11-14T17:53:23.536Z,77.61
2022-11-14T17:56:17.109Z,77.24
2022-11-14T17:59:02.659Z,77.47
2022-11-14T18:01:48.745Z,78.05
2022-11-14T18:04:34.298Z,78.35
2022-11-14T18:07:20.946Z,78.87
2022-11-14T18:10:07.091Z,78.90
2022-11-14T18:12:52.671Z,79.36
2022-11-14T18:15:39.368Z,79.73
2022-11-14T18:18:25.071Z,79.60
2022-11-14T18:21:14.848Z,79.65
2022-11-14T18:24:00.559Z,79.73
2022-11-14T18:26:46.057Z,80.23
2022-11-14T18:29:32.067Z,79.95
2022-11-14T18:32:18.495Z,80.52
2022-11-14T18:35:04.974Z,80.42
2022-11-14T18:37:50.655Z,80.53
2022-11-14T18:40:36.627Z,80.78
2022-11-14T18:43:22.253Z,80.82
2022-11-14T18:46:10.551Z,81.01
2022-11-14T18:48:57.614Z,81.26
2022-11-14T18:51:43.183Z,81.40
2022-11-14T18:54:28.883Z,81.32
2022-11-14T18:57:14.609Z,81.51
2022-11-14T19:00:00.564Z,81.64
2022-11-14T19:02:55.475Z,82.10
2022-11-14T19:05:41.147Z,82.35
2022-11-14T19:08:27.310Z,81.94
2022-11-14T19:11:34.599Z,81.46
2022-11-14T19:14:21.240Z,80.98
2022-11-14T19:17:07.335Z,80.26
2022-11-14T19:19:55.631Z,79.32
2022-11-14T19:22:41.262Z,79.22
2022-11-14T19:25:27.117Z,78.64
2022-11-14T19:28:13.398Z,78.80
2022-11-14T19:31:04.907Z,78.24
2022-11-14T19:33:50.576Z,78.55
2022-11-14T19:39:43.815Z,79.18
2022-11-14T19:42:30.833Z,79.32
2022-11-14T19:45:17.216Z,79.41
2022-11-14T19:48:03.744Z,79.16
2022-11-14T19:50:49.685Z,78.74
2022-11-14T19:53:36.658Z,78.68
2022-11-14T19:56:23.635Z,78.71
2022-11-14T19:59:13.942Z,78.73
2022-11-14T20:02:01.223Z,78.88
2022-11-14T20:04:50.438Z,79.01
2022-11-14T20:07:36.295Z,78.90
2022-11-14T20:10:22.204Z,79.04
2022-11-14T20:13:07.954Z,79.49
2022-11-14T20:15:53.898Z,79.16
2022-11-14T20:18:41.597Z,78.92
2022-11-14T20:21:30.408Z,79.09
2022-11-14T20:24:21.643Z,79.22
2022-11-14T20:27:07.449Z,79.20
2022-11-14T20:29:53.621Z,79.16
2022-11-14T20:32:39.112Z,79.04
2022-11-14T20:35:24.953Z,78.71
2022-11-14T20:38:10.912Z,78.93
2022-11-14T20:40:57.980Z,77.98
2022-11-14T20:43:44.106Z,78.12
2022-11-14T20:46:30.114Z,78.06
2022-11-14T20:49:16.270Z,78.27
2022-11-14T20:52:05.014Z,78.09
2022-11-14T20:54:50.948Z,77.26
2022-11-14T20:57:37.321Z,77.10
2022-11-14T21:00:23.369Z,76.99
2022-11-14T21:03:10.562Z,77.42
2022-11-14T21:05:56.920Z,77.43
2022-11-14T21:08:43.374Z,77.62
2022-11-14T21:11:29.420Z,77.61
2022-11-14T21:14:15.170Z,77.68
2022-11-14T21:17:00.969Z,77.86
2022-11-14T21:19:46.628Z,78.21
2022-11-14T21:22:32.513Z,78.56
2022-11-14T21:25:18.219Z,78.72
2022-11-14T21:28:04.119Z,78.50
2022-11-14T21:30:49.628Z,78.82
2022-11-14T21:33:35.414Z,78.93
2022-11-14T21:39:27.091Z,78.21
2022-11-14T21:42:18.084Z,77.75
2022-11-14T21:45:04.410Z,77.50
2022-11-14T21:47:50.226Z,77.14
2022-11-14T21:50:36.106Z,76.95
2022-11-14T21:53:21.857Z,77.23
2022-11-14T21:56:22.499Z,76.88
2022-11-14T21:59:21.530Z,77.30
2022-11-14T22:02:29.659Z,77.37
2022-11-14T22:05:15.363Z,77.52
2022-11-14T22:08:01.291Z,77.61
2022-11-14T22:10:46.965Z,77.78
2022-11-14T22:13:33.336Z,77.70
2022-11-14T22:16:19.862Z,77.86
2022-11-14T22:19:06.094Z,78.05
2022-11-14T22:21:51.844Z,77.93
2022-11-14T22:24:37.497Z,77.85
2022-11-14T22:27:23.180Z,77.79
2022-11-14T22:30:09.618Z,77.61
2022-11-14T22:32:54.981Z,77.65
2022-11-14T22:35:40.871Z,77.43
2022-11-14T22:38:29.721Z,76.97
2022-11-14T22:41:31.486Z,76.96
2022-11-14T22:44:18.079Z,76.99
2022-11-14T22:47:04.040Z,77.11
2022-11-14T22:49:49.852Z,77.01
2022-11-14T22:52:35.702Z,76.95
2022-11-14T22:55:21.474Z,76.68
2022-11-14T22:58:07.426Z,76.63
2022-11-14T23:00:53.523Z,76.89
2022-11-14T23:03:40.213Z,76.96
2022-11-14T23:06:26.575Z,76.87
2022-11-14T23:09:12.451Z,76.88
2022-11-14T23:11:57.888Z,76.74
2022-11-14T23:14:43.879Z,76.27
2022-11-14T23:17:29.576Z,76.30
2022-11-14T23:20:16.775Z,76.02
2022-11-14T23:23:02.907Z,76.07
2022-11-14T23:25:48.984Z,75.71
2022-11-14T23:28:35.034Z,75.39
2022-11-14T23:31:21.294Z,75.07
2022-11-14T23:34:06.791Z,72.75
2022-11-14T23:36:52.712Z,72.76
2022-11-14T23:39:38.504Z,71.45
2022-11-14T23:42:24.251Z,71.68
2022-11-14T23:45:10.181Z,71.93
2022-11-14T23:47:56.092Z,71.70
2022-11-14T23:50:42.807Z,71.32
2022-11-14T23:53:28.671Z,70.28
2022-11-14T23:56:15.158Z,69.83
2022-11-14T23:59:00.814Z,69.21
